Time;durP1;ratioP1;P1;durP2;ratioP2;P2;SDS_P1;SDS_P2;PMS_P1;PMS_P2;Temp;Humidity;BMP_temperature;BMP_pressure;BME280_temperature;BME280_humidity;BME280_pressure;Samples;Min_cycle;Max_cycle;Signal;HPM_P1;HPM_P2
2023/08/13 00:01:19;;;;;;;15.60;12.25;;;;;;;;;;6218098;28;20103;-84
2023/08/13 00:04:19;;;;;;;13.53;10.33;;;;;;;;;;6222453;28;20021;-86
2023/08/13 00:07:20;;;;;;;14.45;11.15;;;;;;;;;;6240221;28;20099;-83
2023/08/13 00:10:20;;;;;;;16.77;13.57;;;;;;;;;;6241456;28;20511;-84
2023/08/13 00:13:20;;;;;;;18.67;13.43;;;;;;;;;;6241452;28;20431;-83
2023/08/13 00:16:20;;;;;;;15.45;11.60;;;;;;;;;;6245439;28;20065;-84
2023/08/13 00:19:21;;;;;;;17.70;10.87;;;;;;;;;;6246057;28;20464;-83
2023/08/13 00:22:21;;;;;;;17.27;11.87;;;;;;;;;;6244460;28;20053;-82
2023/08/13 00:25:22;;;;;;;17.77;12.10;;;;;;;;;;6246037;28;20014;-84
2023/08/13 00:28:22;;;;;;;13.70;10.87;;;;;;;;;;6249487;28;20021;-83
2023/08/13 00:31:22;;;;;;;12.27;10.43;;;;;;;;;;6243194;28;20037;-84
2023/08/13 00:34:22;;;;;;;13.03;9.90;;;;;;;;;;6245803;28;20051;-84
2023/08/13 00:37:22;;;;;;;14.50;10.57;;;;;;;;;;6245759;28;20116;-84
2023/08/13 00:40:23;;;;;;;15.43;11.43;;;;;;;;;;6227709;28;20129;-82
2023/08/13 00:43:23;;;;;;;14.83;11.33;;;;;;;;;;6245508;28;20025;-84
2023/08/13 00:46:23;;;;;;;16.90;11.90;;;;;;;;;;6246879;28;20025;-83
2023/08/13 00:49:24;;;;;;;17.13;11.47;;;;;;;;;;6245489;28;20522;-83
2023/08/13 00:52:24;;;;;;;15.67;10.67;;;;;;;;;;6227279;28;20191;-83
2023/08/13 00:55:26;;;;;;;18.47;10.53;;;;;;;;;;6245427;28;20025;-83
2023/08/13 00:58:26;;;;;;;13.27;10.52;;;;;;;;;;6227861;28;20029;-84
2023/08/13 01:01:26;;;;;;;13.63;9.83;;;;;;;;;;6231185;28;20549;-83
2023/08/13 01:04:26;;;;;;;14.97;9.87;;;;;;;;;;6244947;28;20074;-84
2023/08/13 01:07:31;;;;;;;14.03;9.87;;;;;;;;;;6227712;28;20480;-83
2023/08/13 01:10:36;;;;;;;13.13;9.25;;;;;;;;;;6244047;28;20071;-83
2023/08/13 01:13:43;;;;;;;13.25;9.75;;;;;;;;;;6245899;28;20017;-83
2023/08/13 01:16:43;;;;;;;15.48;9.48;;;;;;;;;;6245277;28;20025;-83
2023/08/13 01:19:44;;;;;;;13.23;9.43;;;;;;;;;;6245240;28;20029;-83
2023/08/13 01:22:48;;;;;;;15.47;9.00;;;;;;;;;;6227067;28;20108;-83
2023/08/13 01:25:51;;;;;;;15.90;10.82;;;;;;;;;;6243782;28;20075;-84
2023/08/13 01:29:02;;;;;;;12.43;9.30;;;;;;;;;;6244953;28;20028;-84
2023/08/13 01:32:04;;;;;;;15.55;10.90;;;;;;;;;;6244972;28;20014;-84
2023/08/13 01:35:05;;;;;;;14.02;9.98;;;;;;;;;;6232794;28;20377;-83
2023/08/13 01:38:07;;;;;;;14.20;10.47;;;;;;;;;;6244599;28;20037;-83
2023/08/13 01:41:07;;;;;;;15.45;10.80;;;;;;;;;;6219697;28;20067;-83
2023/08/13 01:44:07;;;;;;;16.93;11.27;;;;;;;;;;6225217;28;20052;-83
2023/08/13 01:47:07;;;;;;;15.07;10.27;;;;;;;;;;6238067;28;20064;-83
2023/08/13 01:50:08;;;;;;;16.00;10.90;;;;;;;;;;6243692;28;20057;-83
2023/08/13 01:53:08;;;;;;;20.20;11.20;;;;;;;;;;6210210;28;20029;-84
2023/08/13 01:56:08;;;;;;;20.60;12.20;;;;;;;;;;6243791;28;20028;-84
2023/08/13 01:59:09;;;;;;;18.23;11.90;;;;;;;;;;6244051;28;20049;-84
2023/08/13 02:02:09;;;;;;;16.10;11.57;;;;;;;;;;6249818;28;20032;-84
2023/08/13 02:05:09;;;;;;;17.43;12.30;;;;;;;;;;6248189;28;20017;-84
2023/08/13 02:08:11;;;;;;;16.97;12.40;;;;;;;;;;6225273;28;20160;-84
2023/08/13 02:11:11;;;;;;;15.48;11.52;;;;;;;;;;6226210;28;20025;-84
2023/08/13 02:14:12;;;;;;;16.23;12.55;;;;;;;;;;6243484;28;20467;-84
2023/08/13 02:17:14;;;;;;;19.57;13.23;;;;;;;;;;6221571;28;20025;-82
2023/08/13 02:20:14;;;;;;;24.98;12.85;;;;;;;;;;6224876;28;20500;-82
2023/08/13 02:23:14;;;;;;;15.40;11.07;;;;;;;;;;6225588;28;20027;-82
2023/08/13 02:26:15;;;;;;;16.55;11.02;;;;;;;;;;6224138;28;20400;-82
2023/08/13 02:29:15;;;;;;;17.63;12.57;;;;;;;;;;6244480;28;20117;-82
2023/08/13 02:32:15;;;;;;;20.17;13.80;;;;;;;;;;6242618;28;20678;-82
2023/08/13 02:35:15;;;;;;;18.43;14.30;;;;;;;;;;6225468;28;20056;-82
2023/08/13 02:38:16;;;;;;;17.10;12.27;;;;;;;;;;6241953;28;20084;-79
2023/08/13 02:41:16;;;;;;;19.63;11.77;;;;;;;;;;6225247;28;20063;-79
2023/08/13 02:44:16;;;;;;;27.87;13.93;;;;;;;;;;6240096;28;20078;-79
2023/08/13 02:47:17;;;;;;;20.50;12.50;;;;;;;;;;6238226;28;20021;-84
2023/08/13 02:50:17;;;;;;;18.57;13.00;;;;;;;;;;6237887;28;20052;-84
2023/08/13 02:53:17;;;;;;;15.23;11.57;;;;;;;;;;6243144;28;20087;-83
2023/08/13 02:56:18;;;;;;;15.80;11.77;;;;;;;;;;6223951;28;20053;-82
2023/08/13 02:59:18;;;;;;;16.17;10.73;;;;;;;;;;6237605;28;20125;-83
2023/08/13 03:02:20;;;;;;;14.57;10.23;;;;;;;;;;6242651;28;20108;-83
2023/08/13 03:05:20;;;;;;;15.23;12.00;;;;;;;;;;6242849;28;20056;-83
2023/08/13 03:08:20;;;;;;;21.67;14.20;;;;;;;;;;6242297;28;20033;-83
2023/08/13 03:11:21;;;;;;;22.40;14.10;;;;;;;;;;6242236;28;20040;-84
2023/08/13 03:14:21;;;;;;;23.83;14.60;;;;;;;;;;6242008;28;20029;-85
2023/08/13 03:17:22;;;;;;;16.67;13.98;;;;;;;;;;6225592;28;20575;-84
2023/08/13 03:20:22;;;;;;;20.03;15.50;;;;;;;;;;6224680;28;20029;-85
2023/08/13 03:23:22;;;;;;;15.77;13.07;;;;;;;;;;6242584;28;20025;-84
2023/08/13 03:26:22;;;;;;;19.40;14.03;;;;;;;;;;6224792;28;20018;-85
2023/08/13 03:29:22;;;;;;;18.90;13.90;;;;;;;;;;6221590;28;20043;-85
2023/08/13 03:32:23;;;;;;;19.63;14.80;;;;;;;;;;6241499;28;20029;-84
2023/08/13 03:35:23;;;;;;;19.20;13.40;;;;;;;;;;6223670;28;20052;-83
2023/08/13 03:38:23;;;;;;;15.93;13.63;;;;;;;;;;6241507;28;20018;-83
2023/08/13 03:41:24;;;;;;;25.23;15.23;;;;;;;;;;6241709;28;20030;-83
2023/08/13 03:44:24;;;;;;;20.23;14.57;;;;;;;;;;6242389;28;20056;-83
2023/08/13 03:47:24;;;;;;;17.00;13.77;;;;;;;;;;6242596;28;20025;-82
2023/08/13 03:50:24;;;;;;;18.57;13.47;;;;;;;;;;6250036;28;20098;-83
2023/08/13 03:53:25;;;;;;;20.58;14.32;;;;;;;;;;6246809;28;20030;-83
2023/08/13 03:56:26;;;;;;;18.00;14.37;;;;;;;;;;6246613;28;20045;-81
2023/08/13 03:59:26;;;;;;;18.93;14.37;;;;;;;;;;6226642;28;20029;-81
2023/08/13 04:02:26;;;;;;;18.67;14.10;;;;;;;;;;6243856;28;20403;-81
2023/08/13 04:05:26;;;;;;;18.07;15.83;;;;;;;;;;6239730;28;20033;-81
2023/08/13 04:08:28;;;;;;;23.83;16.00;;;;;;;;;;6228781;28;20026;-81
2023/08/13 04:11:28;;;;;;;19.10;14.07;;;;;;;;;;6246559;28;20087;-81
2023/08/13 04:14:28;;;;;;;22.03;15.30;;;;;;;;;;6245959;28;20104;-81
2023/08/13 04:17:29;;;;;;;16.70;13.10;;;;;;;;;;6246680;28;20025;-83
2023/08/13 04:20:29;;;;;;;20.70;13.70;;;;;;;;;;6227313;28;20041;-83
2023/08/13 04:23:29;;;;;;;19.93;14.17;;;;;;;;;;6211154;28;20030;-83
2023/08/13 04:26:29;;;;;;;19.00;15.03;;;;;;;;;;6246386;28;20036;-84
2023/08/13 04:29:29;;;;;;;17.80;13.90;;;;;;;;;;6247841;28;20029;-83
2023/08/13 04:32:31;;;;;;;18.27;13.27;;;;;;;;;;6245849;28;20029;-84
2023/08/13 04:35:32;;;;;;;17.88;13.38;;;;;;;;;;6245937;28;20017;-84
2023/08/13 04:38:32;;;;;;;17.77;12.47;;;;;;;;;;6245958;28;20044;-84
2023/08/13 04:41:32;;;;;;;18.53;12.80;;;;;;;;;;6245489;28;20025;-84
2023/08/13 04:44:32;;;;;;;16.43;11.97;;;;;;;;;;6235059;28;20025;-84
2023/08/13 04:47:33;;;;;;;16.27;11.65;;;;;;;;;;6245352;28;20025;-84
2023/08/13 04:50:33;;;;;;;15.93;11.43;;;;;;;;;;6227407;28;20427;-84
2023/08/13 04:53:34;;;;;;;16.27;11.25;;;;;;;;;;6227622;28;20396;-85
2023/08/13 04:56:35;;;;;;;15.93;11.20;;;;;;;;;;6225245;28;20181;-85
2023/08/13 04:59:36;;;;;;;;;;;;;;;;;;6245610;28;20496;-84
2023/08/13 05:02:36;;;;;;;14.85;11.13;;;;;;;;;;6246688;28;19920;-84
2023/08/13 05:05:36;;;;;;;14.33;10.53;;;;;;;;;;6245330;28;20049;-84
2023/08/13 05:08:37;;;;;;;15.20;10.77;;;;;;;;;;6249617;28;20918;-84
2023/08/13 05:11:37;;;;;;;14.10;10.30;;;;;;;;;;6245012;28;20075;-85
2023/08/13 05:14:37;;;;;;;15.30;10.67;;;;;;;;;;6245140;28;20013;-84
2023/08/13 05:17:37;;;;;;;15.00;11.27;;;;;;;;;;6227396;28;20033;-81
2023/08/13 05:20:38;;;;;;;14.70;12.00;;;;;;;;;;6244150;28;20254;-81
2023/08/13 05:23:38;;;;;;;18.90;11.13;;;;;;;;;;6244385;28;20017;-81
2023/08/13 05:26:38;;;;;;;17.30;12.60;;;;;;;;;;6244684;28;20068;-81
2023/08/13 05:29:38;;;;;;;16.42;11.95;;;;;;;;;;6223939;28;20505;-80
2023/08/13 05:32:39;;;;;;;14.20;10.63;;;;;;;;;;6227033;28;20083;-80
2023/08/13 05:35:40;;;;;;;16.03;11.47;;;;;;;;;;6244647;28;20034;-80
2023/08/13 05:38:41;;;;;;;15.00;11.80;;;;;;;;;;6209915;28;20053;-80
2023/08/13 05:41:41;;;;;;;15.13;11.23;;;;;;;;;;6226077;28;20040;-80
2023/08/13 05:44:41;;;;;;;14.38;10.73;;;;;;;;;;6241410;28;20017;-80
2023/08/13 05:47:41;;;;;;;16.52;11.18;;;;;;;;;;6244076;28;20026;-80
2023/08/13 05:50:42;;;;;;;15.57;11.50;;;;;;;;;;6245167;28;20029;-80
2023/08/13 05:53:42;;;;;;;20.13;9.83;;;;;;;;;;6244050;28;20390;-80
2023/08/13 05:56:42;;;;;;;14.87;10.80;;;;;;;;;;6243523;28;20025;-81
2023/08/13 05:59:42;;;;;;;14.82;10.57;;;;;;;;;;6243225;28;20105;-81
2023/08/13 06:02:43;;;;;;;16.20;11.00;;;;;;;;;;6244956;28;20027;-80
2023/08/13 06:05:49;;;;;;;13.37;10.40;;;;;;;;;;6225251;28;20018;-81
2023/08/13 06:08:49;;;;;;;12.35;8.98;;;;;;;;;;6241497;28;20028;-81
2023/08/13 06:11:49;;;;;;;12.93;10.23;;;;;;;;;;6238340;28;20045;-81
2023/08/13 06:14:51;;;;;;;10.67;8.80;;;;;;;;;;6239841;28;20577;-81
2023/08/13 06:17:52;;;;;;;11.25;8.73;;;;;;;;;;6248649;28;20151;-81
2023/08/13 06:20:52;;;;;;;10.57;8.60;;;;;;;;;;6242104;28;20563;-80
2023/08/13 06:23:52;;;;;;;12.27;8.80;;;;;;;;;;6242432;28;20027;-80
2023/08/13 06:26:53;;;;;;;12.20;7.53;;;;;;;;;;6243623;28;20400;-83
2023/08/13 06:29:53;;;;;;;13.13;8.65;;;;;;;;;;6245560;28;20026;-83
2023/08/13 06:32:53;;;;;;;10.30;7.07;;;;;;;;;;6243333;28;20017;-83
2023/08/13 06:35:54;;;;;;;11.97;7.63;;;;;;;;;;6242595;28;20026;-83
2023/08/13 06:38:54;;;;;;;9.27;6.87;;;;;;;;;;6243199;28;20025;-83
2023/08/13 06:41:56;;;;;;;9.93;6.80;;;;;;;;;;6242646;28;20411;-83
2023/08/13 06:44:56;;;;;;;;;;;;;;;;;;6225396;28;20017;-83
2023/08/13 06:48:00;;;;;;;14.40;7.07;;;;;;;;;;6242526;28;20004;-83
2023/08/13 06:51:00;;;;;;;12.93;7.15;;;;;;;;;;6240406;28;20482;-82
2023/08/13 06:54:00;;;;;;;8.63;5.77;;;;;;;;;;6226259;28;20088;-82
2023/08/13 06:57:00;;;;;;;8.90;6.00;;;;;;;;;;6242118;28;20036;-82
2023/08/13 07:00:01;;;;;;;9.47;6.40;;;;;;;;;;6242176;28;20129;-83
2023/08/13 07:03:02;;;;;;;8.90;5.73;;;;;;;;;;6246208;28;20018;-82
2023/08/13 07:06:03;;;;;;;7.90;5.47;;;;;;;;;;6242676;28;20024;-82
2023/08/13 07:09:03;;;;;;;9.83;5.80;;;;;;;;;;6242125;28;20018;-83
2023/08/13 07:12:04;;;;;;;10.13;6.27;;;;;;;;;;6242927;28;20108;-82
2023/08/13 07:15:04;;;;;;;11.93;6.00;;;;;;;;;;6242180;28;20387;-82
2023/08/13 07:18:05;;;;;;;7.30;4.63;;;;;;;;;;6244961;28;20353;-82
2023/08/13 07:21:06;;;;;;;11.50;6.03;;;;;;;;;;6242321;28;20468;-82
2023/08/13 07:24:06;;;;;;;9.77;5.40;;;;;;;;;;6239001;28;20025;-82
2023/08/13 07:27:09;;;;;;;;;;;;;;;;;;6241661;28;20033;-83
2023/08/13 07:30:10;;;;;;;11.20;6.35;;;;;;;;;;6243692;28;20051;-82
2023/08/13 07:33:11;;;;;;;10.82;6.30;;;;;;;;;;6241646;28;20038;-82
2023/08/13 07:36:13;;;;;;;9.33;5.50;;;;;;;;;;6242147;28;20092;-82
2023/08/13 07:39:15;;;;;;;9.02;5.18;;;;;;;;;;6243491;28;20078;-81
2023/08/13 07:42:16;;;;;;;8.98;5.93;;;;;;;;;;6242714;28;20021;-81
2023/08/13 07:45:17;;;;;;;10.03;6.20;;;;;;;;;;6242731;28;20364;-81
2023/08/13 07:48:17;;;;;;;10.68;5.32;;;;;;;;;;6241197;28;20047;-82
2023/08/13 07:51:18;;;;;;;9.80;5.57;;;;;;;;;;6245808;28;20479;-82
2023/08/13 07:54:22;;;;;;;9.25;5.05;;;;;;;;;;6223885;28;20041;-80
2023/08/13 07:57:23;;;;;;;9.43;5.15;;;;;;;;;;6241898;28;20392;-81
2023/08/13 08:00:24;;;;;;;10.13;5.25;;;;;;;;;;6238278;28;20041;-81
2023/08/13 08:03:24;;;;;;;7.05;4.50;;;;;;;;;;6247421;28;20095;-82
2023/08/13 08:06:25;;;;;;;8.38;4.43;;;;;;;;;;6240244;28;20041;-80
2023/08/13 08:09:25;;;;;;;7.03;4.28;;;;;;;;;;6241873;28;20025;-81
2023/08/13 08:12:25;;;;;;;6.30;4.40;;;;;;;;;;6240965;28;20403;-81
2023/08/13 08:15:25;;;;;;;5.03;3.53;;;;;;;;;;6241122;28;20038;-80
2023/08/13 08:18:28;;;;;;;5.70;4.30;;;;;;;;;;6240753;28;20563;-81
2023/08/13 08:21:28;;;;;;;11.18;4.82;;;;;;;;;;6240209;28;20033;-80
2023/08/13 08:24:28;;;;;;;11.17;4.17;;;;;;;;;;6240352;28;20400;-80
2023/08/13 08:27:28;;;;;;;8.30;4.67;;;;;;;;;;6240154;28;20063;-80
2023/08/13 08:30:30;;;;;;;7.90;3.83;;;;;;;;;;6243789;28;20112;-81
2023/08/13 08:33:31;;;;;;;6.63;4.30;;;;;;;;;;6241079;28;20032;-80
2023/08/13 08:36:32;;;;;;;6.65;4.32;;;;;;;;;;6243493;28;20034;-80
2023/08/13 08:39:32;;;;;;;5.53;3.60;;;;;;;;;;6227973;28;20056;-79
2023/08/13 08:42:32;;;;;;;8.98;3.78;;;;;;;;;;6245536;28;20029;-79
2023/08/13 08:45:33;;;;;;;7.80;3.43;;;;;;;;;;6246051;28;20033;-80
2023/08/13 08:48:33;;;;;;;5.35;3.45;;;;;;;;;;6222722;28;20505;-80
2023/08/13 08:51:33;;;;;;;4.13;3.13;;;;;;;;;;6245378;28;20075;-80
2023/08/13 08:54:40;;;;;;;5.47;3.07;;;;;;;;;;6245704;28;20025;-78
2023/08/13 08:57:40;;;;;;;5.68;3.20;;;;;;;;;;6245011;28;20264;-77
2023/08/13 09:00:43;;;;;;;7.07;3.57;;;;;;;;;;6247728;28;20083;-78
2023/08/13 09:03:43;;;;;;;5.03;3.35;;;;;;;;;;6249876;28;20434;-79
2023/08/13 09:06:55;;;;;;;5.72;3.03;;;;;;;;;;6248190;28;20021;-79
2023/08/13 09:09:58;;;;;;;6.47;3.20;;;;;;;;;;6245318;28;20029;-78
2023/08/13 09:12:59;;;;;;;6.45;2.72;;;;;;;;;;6245468;28;20033;-80
2023/08/13 09:16:02;;;;;;;;;;;;;;;;;;6245515;28;20057;-79
2023/08/13 09:19:02;;;;;;;6.00;3.33;;;;;;;;;;6244649;28;19923;-79
2023/08/13 09:22:03;;;;;;;;;;;;;;;;;;6228023;28;20018;-79
2023/08/13 09:25:03;;;;;;;3.30;2.38;;;;;;;;;;6244915;28;19990;-79
2023/08/13 09:28:03;;;;;;;5.22;2.90;;;;;;;;;;6244500;28;20056;-78
2023/08/13 09:31:04;;;;;;;5.00;3.30;;;;;;;;;;6243746;28;20033;-78
2023/08/13 09:34:04;;;;;;;14.93;7.43;;;;;;;;;;6245095;28;20021;-77
2023/08/13 09:37:05;;;;;;;11.48;5.40;;;;;;;;;;6243400;28;20493;-77
2023/08/13 09:40:06;;;;;;;7.13;3.40;;;;;;;;;;6242743;28;20028;-77
2023/08/13 09:43:06;;;;;;;6.70;2.75;;;;;;;;;;6224625;28;20109;-78
2023/08/13 09:46:08;;;;;;;5.55;3.10;;;;;;;;;;6248065;28;20021;-78
2023/08/13 09:49:11;;;;;;;6.03;3.47;;;;;;;;;;6226519;28;20168;-78
2023/08/13 09:52:11;;;;;;;5.32;2.88;;;;;;;;;;6244790;28;20021;-78
2023/08/13 09:55:17;;;;;;;5.82;3.80;;;;;;;;;;6244164;28;20064;-78
2023/08/13 09:58:18;;;;;;;5.45;3.05;;;;;;;;;;6237377;28;20547;-78
2023/08/13 10:01:20;;;;;;;6.40;3.22;;;;;;;;;;6230856;28;20081;-78
2023/08/13 10:04:21;;;;;;;4.15;2.80;;;;;;;;;;6248970;28;20648;-78
2023/08/13 10:07:22;;;;;;;;;;;;;;;;;;6226835;28;20458;-78
2023/08/13 10:10:23;;;;;;;3.95;3.03;;;;;;;;;;6243732;28;20374;-78
2023/08/13 10:13:23;;;;;;;;;;;;;;;;;;6244776;28;20024;-78
2023/08/13 10:16:25;;;;;;;3.78;2.65;;;;;;;;;;6242910;28;20346;-78
2023/08/13 10:19:29;;;;;;;5.10;2.70;;;;;;;;;;6237160;28;20030;-78
2023/08/13 10:22:39;;;;;;;4.18;2.95;;;;;;;;;;6242908;28;20675;-77
2023/08/13 10:25:39;;;;;;;4.28;2.50;;;;;;;;;;6224641;28;20759;-78
2023/08/13 10:28:39;;;;;;;4.87;3.20;;;;;;;;;;6242470;28;20016;-78
2023/08/13 10:31:48;;;;;;;4.20;2.53;;;;;;;;;;6242183;28;20301;-77
2023/08/13 10:34:51;;;;;;;4.53;3.00;;;;;;;;;;6226331;28;20075;-79
2023/08/13 10:37:53;;;;;;;7.90;3.30;;;;;;;;;;6242246;28;20035;-77
2023/08/13 10:40:58;;;;;;;4.53;3.00;;;;;;;;;;6242906;28;20021;-77
2023/08/13 10:44:01;;;;;;;5.25;2.40;;;;;;;;;;6243045;28;20105;-77
2023/08/13 10:47:01;;;;;;;4.20;3.15;;;;;;;;;;6243680;28;20017;-77
2023/08/13 10:50:04;;;;;;;3.20;2.40;;;;;;;;;;6244127;28;20041;-78
2023/08/13 10:53:04;;;;;;;4.05;2.80;;;;;;;;;;6242938;28;20045;-78
2023/08/13 10:56:04;;;;;;;;;;;;;;;;;;6242422;28;20400;-77
2023/08/13 10:59:04;;;;;;;5.30;2.83;;;;;;;;;;6240654;28;19924;-78
2023/08/13 11:02:10;;;;;;;4.43;2.73;;;;;;;;;;6246938;28;20105;-78
2023/08/13 11:05:11;;;;;;;5.60;3.13;;;;;;;;;;6244429;28;20219;-77
2023/08/13 11:08:22;;;;;;;5.18;2.63;;;;;;;;;;6223565;28;20029;-77
2023/08/13 11:11:22;;;;;;;;;;;;;;;;;;6246519;28;20025;-78
2023/08/13 11:14:22;;;;;;;3.53;2.60;;;;;;;;;;6240792;28;19972;-77
2023/08/13 11:17:22;;;;;;;4.73;3.17;;;;;;;;;;6223300;28;20168;-78
2023/08/13 11:20:23;;;;;;;9.02;3.00;;;;;;;;;;6240773;28;20063;-78
2023/08/13 11:23:24;;;;;;;4.03;2.70;;;;;;;;;;6241776;28;20100;-78
2023/08/13 11:26:25;;;;;;;3.83;2.92;;;;;;;;;;6240943;28;20025;-78
2023/08/13 11:29:25;;;;;;;5.68;3.30;;;;;;;;;;6236292;28;20034;-78
2023/08/13 11:32:25;;;;;;;6.93;2.77;;;;;;;;;;6239051;28;20021;-78
2023/08/13 11:35:26;;;;;;;6.90;2.77;;;;;;;;;;6224263;28;20827;-78
2023/08/13 11:38:26;;;;;;;5.80;3.03;;;;;;;;;;6237170;28;20020;-78
2023/08/13 11:41:26;;;;;;;4.80;3.13;;;;;;;;;;6243938;28;20436;-78
2023/08/13 11:44:29;;;;;;;5.00;2.63;;;;;;;;;;6241443;28;20025;-78
2023/08/13 11:47:30;;;;;;;6.45;3.10;;;;;;;;;;6241334;28;20036;-79
2023/08/13 11:50:31;;;;;;;6.87;3.17;;;;;;;;;;6240578;28;20124;-79
2023/08/13 11:53:39;;;;;;;4.72;3.40;;;;;;;;;;6240825;28;20029;-78
2023/08/13 11:56:40;;;;;;;5.82;2.97;;;;;;;;;;6228570;28;20110;-78
2023/08/13 11:59:40;;;;;;;3.95;3.00;;;;;;;;;;6241084;28;20487;-78
2023/08/13 12:02:41;;;;;;;4.70;3.17;;;;;;;;;;6241332;28;20020;-78
2023/08/13 12:05:42;;;;;;;4.70;2.58;;;;;;;;;;6240718;28;20266;-78
2023/08/13 12:08:43;;;;;;;4.40;3.45;;;;;;;;;;6241141;28;20018;-78
2023/08/13 12:11:43;;;;;;;4.25;2.55;;;;;;;;;;6243403;28;20109;-78
2023/08/13 12:14:44;;;;;;;4.80;2.97;;;;;;;;;;6240950;28;20033;-79
2023/08/13 12:17:45;;;;;;;6.13;2.92;;;;;;;;;;6244719;28;20040;-79
2023/08/13 12:20:45;;;;;;;9.27;3.35;;;;;;;;;;6244829;28;20029;-78
2023/08/13 12:23:45;;;;;;;5.05;2.58;;;;;;;;;;6229075;28;20026;-78
2023/08/13 12:26:45;;;;;;;4.22;3.65;;;;;;;;;;6245173;28;20438;-78
2023/08/13 12:29:46;;;;;;;6.90;3.23;;;;;;;;;;6245187;28;20059;-78
2023/08/13 12:32:46;;;;;;;6.30;3.05;;;;;;;;;;6244895;28;20036;-79
2023/08/13 12:35:46;;;;;;;3.30;2.77;;;;;;;;;;6245168;28;20032;-79
2023/08/13 12:38:47;;;;;;;3.83;3.00;;;;;;;;;;6244836;28;20045;-78
2023/08/13 12:41:47;;;;;;;4.90;2.67;;;;;;;;;;6244501;28;20106;-78
2023/08/13 12:44:47;;;;;;;4.63;3.13;;;;;;;;;;6245070;28;20021;-77
2023/08/13 12:47:48;;;;;;;5.57;2.92;;;;;;;;;;6226743;28;20048;-78
2023/08/13 12:50:48;;;;;;;4.57;2.83;;;;;;;;;;6223985;28;20040;-78
2023/08/13 12:53:48;;;;;;;3.63;2.80;;;;;;;;;;6203036;28;20428;-78
2023/08/13 12:56:48;;;;;;;6.22;3.38;;;;;;;;;;6219245;28;20075;-78
2023/08/13 12:59:49;;;;;;;4.43;2.40;;;;;;;;;;6214956;28;20700;-78
2023/08/13 13:02:49;;;;;;;3.03;2.60;;;;;;;;;;6224163;28;20033;-78
2023/08/13 13:05:49;;;;;;;3.87;2.70;;;;;;;;;;6203188;28;20093;-78
2023/08/13 13:08:49;;;;;;;4.33;3.60;;;;;;;;;;6219229;28;20045;-78
2023/08/13 13:11:50;;;;;;;3.88;3.28;;;;;;;;;;6200467;28;20364;-78
2023/08/13 13:14:50;;;;;;;3.40;2.80;;;;;;;;;;6215989;28;20120;-78
2023/08/13 13:17:50;;;;;;;3.90;2.90;;;;;;;;;;6219826;28;20101;-78
2023/08/13 13:20:50;;;;;;;5.50;3.27;;;;;;;;;;6217005;28;20025;-77
2023/08/13 13:23:51;;;;;;;3.13;2.83;;;;;;;;;;6215601;28;20101;-77
2023/08/13 13:26:51;;;;;;;4.00;2.57;;;;;;;;;;6217619;28;20132;-77
2023/08/13 13:29:51;;;;;;;3.40;2.93;;;;;;;;;;6202407;28;20264;-77
2023/08/13 13:32:51;;;;;;;4.23;2.67;;;;;;;;;;6201763;28;20033;-77
2023/08/13 13:35:51;;;;;;;4.57;2.57;;;;;;;;;;6217402;28;20460;-77
2023/08/13 13:38:52;;;;;;;3.80;2.80;;;;;;;;;;6213170;28;20070;-77
2023/08/13 13:41:52;;;;;;;4.63;2.70;;;;;;;;;;6214635;28;20010;-77
2023/08/13 13:44:52;;;;;;;4.43;3.30;;;;;;;;;;6219339;28;20017;-77
2023/08/13 13:47:52;;;;;;;4.40;2.93;;;;;;;;;;6223191;28;20590;-77
2023/08/13 13:50:54;;;;;;;4.28;2.88;;;;;;;;;;6244142;28;20017;-77
2023/08/13 13:53:54;;;;;;;5.95;2.65;;;;;;;;;;6226098;28;20500;-77
2023/08/13 13:56:55;;;;;;;6.40;2.58;;;;;;;;;;6244181;28;20017;-78
2023/08/13 13:59:55;;;;;;;2.70;2.45;;;;;;;;;;6250262;28;20773;-77
2023/08/13 14:02:56;;;;;;;4.18;2.78;;;;;;;;;;6242025;28;20023;-77
2023/08/13 14:05:56;;;;;;;3.97;2.83;;;;;;;;;;6239658;28;20029;-77
2023/08/13 14:08:56;;;;;;;6.70;3.17;;;;;;;;;;6243986;28;20045;-77
2023/08/13 14:11:56;;;;;;;3.20;2.67;;;;;;;;;;6243850;28;20256;-77
2023/08/13 14:14:57;;;;;;;2.87;2.60;;;;;;;;;;6244253;28;20017;-77
2023/08/13 14:17:57;;;;;;;3.65;2.53;;;;;;;;;;6244273;28;20890;-77
2023/08/13 14:20:57;;;;;;;5.43;2.57;;;;;;;;;;6243408;28;20009;-77
2023/08/13 14:23:58;;;;;;;3.08;2.42;;;;;;;;;;6225545;28;20022;-77
2023/08/13 14:26:58;;;;;;;5.47;3.43;;;;;;;;;;6237854;28;20022;-77
2023/08/13 14:29:59;;;;;;;4.22;2.53;;;;;;;;;;6243681;28;20029;-77
2023/08/13 14:32:59;;;;;;;4.88;2.58;;;;;;;;;;6238810;28;20426;-76
2023/08/13 14:35:59;;;;;;;3.87;3.30;;;;;;;;;;6243570;28;20025;-76
2023/08/13 14:39:02;;;;;;;5.90;3.37;;;;;;;;;;6240270;28;20018;-77
2023/08/13 14:42:03;;;;;;;3.42;2.78;;;;;;;;;;6224659;28;20020;-77
2023/08/13 14:45:04;;;;;;;7.57;3.10;;;;;;;;;;6242598;28;20100;-77
2023/08/13 14:48:04;;;;;;;3.65;2.63;;;;;;;;;;6242439;28;20411;-77
2023/08/13 14:51:04;;;;;;;3.33;2.40;;;;;;;;;;6243926;28;20128;-77
2023/08/13 14:54:04;;;;;;;5.55;2.50;;;;;;;;;;6242625;28;20639;-77
2023/08/13 14:57:05;;;;;;;5.40;2.90;;;;;;;;;;6242377;28;20040;-78
2023/08/13 15:00:08;;;;;;;3.33;2.80;;;;;;;;;;6244088;28;20025;-78
2023/08/13 15:03:08;;;;;;;3.63;2.95;;;;;;;;;;6246751;28;20013;-78
2023/08/13 15:06:08;;;;;;;7.37;2.40;;;;;;;;;;6242225;28;20087;-78
2023/08/13 15:09:08;;;;;;;6.37;3.20;;;;;;;;;;6242752;28;20049;-78
2023/08/13 15:12:08;;;;;;;3.57;2.70;;;;;;;;;;6221902;28;20029;-78
2023/08/13 15:15:10;;;;;;;3.13;2.40;;;;;;;;;;6241687;28;20036;-78
2023/08/13 15:18:10;;;;;;;5.70;3.25;;;;;;;;;;6236381;28;20024;-78
2023/08/13 15:21:12;;;;;;;4.00;2.73;;;;;;;;;;6242273;28;20017;-78
2023/08/13 15:24:12;;;;;;;5.35;3.15;;;;;;;;;;6238809;28;20025;-78
2023/08/13 15:27:12;;;;;;;3.77;3.07;;;;;;;;;;6238669;28;20030;-78
2023/08/13 15:30:13;;;;;;;5.47;2.72;;;;;;;;;;6224388;28;20481;-79
2023/08/13 15:33:13;;;;;;;4.50;3.08;;;;;;;;;;6226645;28;20379;-79
2023/08/13 15:36:14;;;;;;;4.63;2.83;;;;;;;;;;6243754;28;20032;-79
2023/08/13 15:39:15;;;;;;;5.50;3.08;;;;;;;;;;6245281;28;20030;-80
2023/08/13 15:42:15;;;;;;;4.60;3.25;;;;;;;;;;6242361;28;20017;-79
2023/08/13 15:45:16;;;;;;;3.40;2.93;;;;;;;;;;6242931;28;20636;-79
2023/08/13 15:48:16;;;;;;;4.03;2.60;;;;;;;;;;6228730;28;20071;-78
2023/08/13 15:51:16;;;;;;;4.40;3.05;;;;;;;;;;6250992;28;20029;-78
2023/08/13 15:54:16;;;;;;;4.97;2.75;;;;;;;;;;6228667;28;20396;-78
2023/08/13 15:57:17;;;;;;;6.93;3.23;;;;;;;;;;6247103;28;20116;-78
2023/08/13 16:00:17;;;;;;;4.07;3.20;;;;;;;;;;6242466;28;20044;-79
2023/08/13 16:03:18;;;;;;;5.20;2.63;;;;;;;;;;6243408;28;20650;-78
2023/08/13 16:06:18;;;;;;;3.15;2.63;;;;;;;;;;6246721;28;20037;-79
2023/08/13 16:09:19;;;;;;;5.03;2.50;;;;;;;;;;6246040;28;20030;-78
2023/08/13 16:12:19;;;;;;;7.73;3.07;;;;;;;;;;6246645;28;20503;-78
2023/08/13 16:15:19;;;;;;;5.63;3.20;;;;;;;;;;6243471;28;20033;-79
2023/08/13 16:18:19;;;;;;;3.17;2.80;;;;;;;;;;6247825;28;20041;-77
2023/08/13 16:21:20;;;;;;;5.73;3.33;;;;;;;;;;6247746;28;20359;-78
2023/08/13 16:24:20;;;;;;;4.57;2.97;;;;;;;;;;6251341;28;20005;-78
2023/08/13 16:27:20;;;;;;;6.07;3.55;;;;;;;;;;6251348;28;20407;-79
2023/08/13 16:30:20;;;;;;;6.53;3.70;;;;;;;;;;6246980;28;20026;-78
2023/08/13 16:33:20;;;;;;;6.57;3.73;;;;;;;;;;6228661;28;20021;-79
2023/08/13 16:36:21;;;;;;;4.93;3.50;;;;;;;;;;6243789;28;20021;-79
2023/08/13 16:39:22;;;;;;;8.18;4.05;;;;;;;;;;6227558;28;20180;-79
2023/08/13 16:42:23;;;;;;;7.18;3.90;;;;;;;;;;6246889;28;20087;-78
2023/08/13 16:45:24;;;;;;;5.47;3.60;;;;;;;;;;6226635;28;20104;-79
2023/08/13 16:48:24;;;;;;;5.30;2.80;;;;;;;;;;6245527;28;20037;-79
2023/08/13 16:51:24;;;;;;;5.33;2.90;;;;;;;;;;6245493;28;20103;-79
2023/08/13 16:54:25;;;;;;;3.50;3.08;;;;;;;;;;6249912;28;20038;-79
2023/08/13 16:57:25;;;;;;;5.03;3.33;;;;;;;;;;6245290;28;20021;-79
2023/08/13 17:00:25;;;;;;;6.20;3.83;;;;;;;;;;6226916;28;20025;-79
2023/08/13 17:03:25;;;;;;;5.87;3.47;;;;;;;;;;6245592;28;20025;-79
2023/08/13 17:06:25;;;;;;;7.53;3.97;;;;;;;;;;6248157;28;20033;-78
2023/08/13 17:09:27;;;;;;;7.68;3.72;;;;;;;;;;6245176;28;20033;-78
2023/08/13 17:12:28;;;;;;;5.07;3.58;;;;;;;;;;6248301;28;20029;-78
2023/08/13 17:15:29;;;;;;;10.30;4.50;;;;;;;;;;6248650;28;20032;-78
2023/08/13 17:18:30;;;;;;;10.77;4.13;;;;;;;;;;6245217;28;20115;-79
2023/08/13 17:21:30;;;;;;;12.32;3.72;;;;;;;;;;6245318;28;20119;-79
2023/08/13 17:24:30;;;;;;;8.90;4.23;;;;;;;;;;6211945;28;20034;-79
2023/08/13 17:27:30;;;;;;;7.82;4.80;;;;;;;;;;6247609;28;20431;-79
2023/08/13 17:30:30;;;;;;;8.00;4.15;;;;;;;;;;6248224;28;20100;-79
2023/08/13 17:33:32;;;;;;;6.57;3.93;;;;;;;;;;6243738;28;20029;-79
2023/08/13 17:36:32;;;;;;;11.63;4.20;;;;;;;;;;6243413;28;20068;-79
2023/08/13 17:39:32;;;;;;;5.65;4.05;;;;;;;;;;6242661;28;20616;-79
2023/08/13 17:42:32;;;;;;;6.25;3.92;;;;;;;;;;6238548;28;20029;-78
2023/08/13 17:45:33;;;;;;;;;;;;;;;;;;6225906;28;20484;-79
2023/08/13 17:48:33;;;;;;;7.53;4.53;;;;;;;;;;6242916;28;19924;-78
2023/08/13 17:51:33;;;;;;;;;;;;;;;;;;6243617;28;20112;-78
2023/08/13 17:54:33;;;;;;;9.30;5.05;;;;;;;;;;6240139;28;19925;-79